createdAt,value
2019-01-25T00:00:04.258Z,98699.50
2019-01-25T00:02:31.048Z,98692.80
2019-01-25T00:04:57.924Z,98701.78
2019-01-25T00:07:24.791Z,98696.09
2019-01-25T00:09:58.492Z,98703.65
2019-01-25T00:12:25.500Z,98702.27
2019-01-25T00:14:53.779Z,98697.67
2019-01-25T00:17:20.676Z,98695.05
2019-01-25T00:19:47.456Z,98696.09
2019-01-25T00:22:15.515Z,98707.27
2019-01-25T00:24:42.281Z,98701.48
2019-01-25T00:27:09.155Z,98697.67
2019-01-25T00:29:35.928Z,98696.91
2019-01-25T00:32:05.646Z,98700.48
2019-01-25T00:34:35.535Z,98700.97
2019-01-25T00:37:02.868Z,98695.77
2019-01-25T00:39:29.631Z,98684.63
2019-01-25T00:41:56.531Z,98688.52
2019-01-25T00:44:23.861Z,98682.73
2019-01-25T00:46:50.669Z,98690.60
2019-01-25T00:49:17.491Z,98690.10
2019-01-25T00:51:44.324Z,98695.38
2019-01-25T00:54:11.209Z,98694.56
2019-01-25T00:56:38.121Z,98700.69
2019-01-25T00:59:05.073Z,98700.00
2019-01-25T01:01:34.412Z,98699.88
2019-01-25T01:04:01.242Z,98695.28
2019-01-25T01:06:33.893Z,98696.09
2019-01-25T01:09:00.953Z,98765.87
2019-01-25T01:11:27.707Z,98704.28
2019-01-25T01:13:54.565Z,98697.61
2019-01-25T01:16:21.413Z,98699.09
2019-01-25T01:18:48.200Z,98701.69
2019-01-25T01:21:15.257Z,98713.67
2019-01-25T01:23:42.037Z,98709.18
2019-01-25T01:26:08.864Z,98705.99
2019-01-25T01:28:35.725Z,98709.78
2019-01-25T01:31:03.321Z,98699.89
2019-01-25T01:33:30.095Z,98705.99
2019-01-25T01:35:59.251Z,98707.78
2019-01-25T01:38:27.660Z,98698.70
2019-01-25T01:40:55.005Z,98708.17
2019-01-25T01:43:21.911Z,98723.95
2019-01-25T01:45:48.648Z,98715.26
2019-01-25T01:48:15.480Z,98727.84
2019-01-25T01:50:42.494Z,98716.98
2019-01-25T01:53:09.484Z,98726.06
2019-01-25T01:55:36.297Z,98733.36
2019-01-25T01:58:03.179Z,98718.17
2019-01-25T02:00:30.080Z,98759.58
2019-01-25T02:02:58.765Z,98711.46
2019-01-25T02:05:25.518Z,98713.58
2019-01-25T02:07:52.451Z,98712.66
2019-01-25T02:10:28.988Z,98709.08
2019-01-25T02:12:51.140Z,98710.97
2019-01-25T02:15:18.816Z,98712.37
2019-01-25T02:17:45.796Z,98698.09
2019-01-25T02:20:16.011Z,98696.69
2019-01-25T02:22:43.296Z,98689.48
2019-01-25T02:25:10.091Z,98692.80
2019-01-25T02:27:36.854Z,98693.78
2019-01-25T02:30:04.704Z,98690.68
2019-01-25T02:32:31.625Z,98687.21
2019-01-25T02:34:58.878Z,98715.77
2019-01-25T02:37:25.721Z,98683.91
2019-01-25T02:39:52.643Z,98691.70
2019-01-25T02:42:19.670Z,98745.92
2019-01-25T02:44:46.746Z,98685.83
2019-01-25T02:47:13.559Z,98697.41
2019-01-25T02:49:40.755Z,98691.18
2019-01-25T02:52:07.581Z,98700.78
2019-01-25T02:54:35.360Z,98711.17
2019-01-25T02:57:02.177Z,98705.27
2019-01-25T02:59:28.941Z,98692.38
2019-01-25T03:01:58.854Z,98695.61
2019-01-25T03:04:27.113Z,98694.59
2019-01-25T03:06:55.144Z,98707.78
2019-01-25T03:09:22.100Z,98703.57
2019-01-25T03:11:48.885Z,98696.90
2019-01-25T03:14:17.662Z,98693.11
2019-01-25T03:16:44.529Z,98699.02
2019-01-25T03:19:11.318Z,98699.19
2019-01-25T03:21:38.287Z,98700.70
2019-01-25T03:24:05.100Z,98692.20
2019-01-25T03:26:31.854Z,98688.52
2019-01-25T03:28:58.628Z,98711.36
2019-01-25T03:31:25.595Z,98707.39
2019-01-25T03:33:52.384Z,98767.77
2019-01-25T03:36:19.168Z,98696.80
2019-01-25T03:38:45.966Z,98696.00
2019-01-25T03:41:12.773Z,98766.89
2019-01-25T03:43:39.752Z,98703.40
2019-01-25T03:46:06.801Z,98708.87
2019-01-25T03:48:33.556Z,98705.19
2019-01-25T03:51:01.012Z,98708.09
2019-01-25T03:53:30.192Z,98712.58
2019-01-25T03:55:56.915Z,98707.99
2019-01-25T03:58:23.689Z,98705.78
2019-01-25T04:00:50.658Z,98712.06
2019-01-25T04:03:17.560Z,98714.48
2019-01-25T04:05:44.336Z,98708.97
2019-01-25T04:08:11.258Z,98718.66
2019-01-25T04:10:38.176Z,98719.56
2019-01-25T04:13:05.084Z,98716.17
2019-01-25T04:15:32.761Z,98713.36
2019-01-25T04:17:59.659Z,98706.20
2019-01-25T04:20:28.382Z,98713.18
2019-01-25T04:22:55.170Z,98712.77
2019-01-25T04:25:22.053Z,98720.16
2019-01-25T04:27:48.973Z,98722.16
2019-01-25T04:30:18.794Z,98728.83
2019-01-25T04:32:45.630Z,98730.44
2019-01-25T04:35:12.472Z,98729.72
2019-01-25T04:37:39.308Z,98731.93
2019-01-25T04:40:08.434Z,98728.16
2019-01-25T04:42:35.192Z,98736.73
2019-01-25T04:45:01.974Z,98721.55
2019-01-25T04:47:28.965Z,98717.53
2019-01-25T04:49:55.908Z,98712.84
2019-01-25T04:52:22.953Z,98712.52
2019-01-25T04:54:49.797Z,98716.13
2019-01-25T04:57:16.558Z,98761.59
2019-01-25T04:59:43.466Z,98733.05
2019-01-25T05:02:10.349Z,98718.55
2019-01-25T05:04:37.596Z,98713.55
2019-01-25T05:07:06.389Z,98717.63
2019-01-25T05:09:40.362Z,98714.80
2019-01-25T05:12:08.484Z,98725.13
2019-01-25T05:14:35.564Z,98722.66
2019-01-25T05:17:02.340Z,98717.46
2019-01-25T05:19:31.898Z,98727.14
2019-01-25T05:21:58.674Z,98777.57
2019-01-25T05:24:25.723Z,98733.02
2019-01-25T05:26:56.693Z,98730.80
2019-01-25T05:29:23.610Z,98731.81
2019-01-25T05:31:50.735Z,98743.50
2019-01-25T05:34:17.494Z,98740.48
2019-01-25T05:36:44.260Z,98743.20
2019-01-25T05:39:11.034Z,98741.14
2019-01-25T05:41:37.791Z,98745.91
2019-01-25T05:44:04.559Z,98746.62
2019-01-25T05:46:31.785Z,98752.60
2019-01-25T05:48:58.521Z,98756.68
2019-01-25T05:51:25.407Z,98755.81
2019-01-25T05:53:52.821Z,98754.72
2019-01-25T05:56:20.615Z,98756.02
2019-01-25T05:58:47.456Z,98779.78
2019-01-25T06:01:14.252Z,98569.66
2019-01-25T06:03:41.154Z,98794.38
2019-01-25T06:06:07.925Z,98759.61
2019-01-25T06:08:35.478Z,98758.80
2019-01-25T06:11:06.602Z,98762.80
2019-01-25T06:13:33.534Z,98757.01
2019-01-25T06:16:00.703Z,98762.30
2019-01-25T06:18:27.578Z,98817.81
2019-01-25T06:20:56.515Z,98765.39
2019-01-25T06:23:23.567Z,98772.79
2019-01-25T06:25:55.068Z,98765.89
2019-01-25T06:28:23.036Z,98766.58
2019-01-25T06:30:50.220Z,98776.86
2019-01-25T06:33:17.159Z,98772.69
2019-01-25T06:35:43.941Z,98770.20
2019-01-25T06:38:12.589Z,98772.19
2019-01-25T06:40:39.353Z,98795.05
2019-01-25T06:43:07.649Z,98784.65
2019-01-25T06:45:34.544Z,98789.25
2019-01-25T06:48:01.313Z,98796.73
2019-01-25T06:50:28.125Z,98788.35
2019-01-25T06:52:57.394Z,98785.83
2019-01-25T06:55:24.360Z,98792.85
2019-01-25T06:58:01.995Z,98807.92
2019-01-25T07:00:29.367Z,98797.27
2019-01-25T07:02:56.181Z,98800.95
2019-01-25T07:05:22.922Z,98801.66
2019-01-25T07:07:50.017Z,98813.16
2019-01-25T07:10:17.371Z,98824.63
2019-01-25T07:12:44.151Z,98809.53
2019-01-25T07:15:12.659Z,98819.31
2019-01-25T07:17:39.446Z,98814.41
2019-01-25T07:20:09.030Z,98822.29
2019-01-25T07:22:38.707Z,98824.06
2019-01-25T07:25:06.359Z,98838.19
2019-01-25T07:27:33.651Z,98828.67
2019-01-25T07:30:00.941Z,98834.45
2019-01-25T07:32:28.028Z,98827.39
2019-01-25T07:34:54.826Z,98833.02
2019-01-25T07:37:21.764Z,98849.00
2019-01-25T07:39:48.524Z,98834.10
2019-01-25T07:42:15.737Z,98838.31
2019-01-25T07:44:44.566Z,98835.13
2019-01-25T07:47:11.556Z,98835.20
2019-01-25T07:49:38.321Z,98834.33
2019-01-25T07:52:05.104Z,98834.91
2019-01-25T07:54:35.562Z,98826.69
2019-01-25T07:57:04.298Z,98841.67
2019-01-25T07:59:31.266Z,98838.56
2019-01-25T08:01:58.177Z,98846.98
2019-01-25T08:04:25.226Z,98842.22
2019-01-25T08:06:52.184Z,98838.12
2019-01-25T08:09:19.015Z,98848.73
2019-01-25T08:11:48.076Z,98850.80
2019-01-25T08:14:16.260Z,98851.50
2019-01-25T08:16:43.089Z,98857.50
2019-01-25T08:19:10.144Z,98858.52
2019-01-25T08:21:36.945Z,98863.20
2019-01-25T08:24:04.497Z,98861.72
2019-01-25T08:26:31.257Z,98860.59
2019-01-25T08:28:58.094Z,98864.49
2019-01-25T08:31:24.929Z,98869.99
2019-01-25T08:33:51.796Z,98868.19
2019-01-25T08:36:18.744Z,98867.47
2019-01-25T08:38:48.760Z,98866.55
2019-01-25T08:41:21.145Z,98857.06
2019-01-25T08:43:48.020Z,98869.14
2019-01-25T08:46:14.738Z,98871.77
2019-01-25T08:48:41.580Z,98872.98
2019-01-25T08:51:08.497Z,98869.19
2019-01-25T08:53:35.638Z,98867.50
2019-01-25T08:56:02.465Z,98874.98
2019-01-25T08:58:29.849Z,98879.23
2019-01-25T09:01:00.123Z,98889.75
2019-01-25T09:03:27.295Z,98890.16
2019-01-25T09:05:55.322Z,98884.02
2019-01-25T09:08:22.197Z,98886.38
2019-01-25T09:10:49.346Z,98885.80
2019-01-25T09:13:19.537Z,98883.52
2019-01-25T09:15:46.402Z,98886.39
2019-01-25T09:18:13.264Z,98885.42
2019-01-25T09:20:40.512Z,98884.00
2019-01-25T09:23:08.049Z,98892.39
2019-01-25T09:25:35.061Z,98894.00
2019-01-25T09:28:01.796Z,98889.50
2019-01-25T09:30:28.811Z,98899.59
2019-01-25T09:32:56.206Z,98902.71
2019-01-25T09:35:24.516Z,98913.34
2019-01-25T09:37:52.079Z,98906.95
2019-01-25T09:40:21.922Z,98911.73
2019-01-25T09:42:48.972Z,98915.96
2019-01-25T09:45:15.805Z,98913.20
2019-01-25T09:47:45.132Z,98919.63
2019-01-25T09:50:13.784Z,98910.42
2019-01-25T09:52:40.814Z,98925.08
2019-01-25T09:55:10.851Z,98917.50
2019-01-25T09:57:38.177Z,98917.45
2019-01-25T10:00:11.378Z,98914.68
2019-01-25T10:02:44.008Z,98912.63
2019-01-25T10:05:10.785Z,98919.83
2019-01-25T10:07:37.639Z,98918.47
2019-01-25T10:10:04.794Z,98920.41
2019-01-25T10:12:38.849Z,98917.52
2019-01-25T10:15:02.588Z,98920.89
2019-01-25T10:17:29.406Z,98913.82
2019-01-25T10:19:56.268Z,98909.85
2019-01-25T10:22:23.066Z,98904.95
2019-01-25T10:24:50.675Z,98908.09
2019-01-25T10:27:17.511Z,98908.98
2019-01-25T10:29:45.044Z,98909.85
2019-01-25T10:32:12.176Z,98913.41
2019-01-25T10:34:39.084Z,98910.24
2019-01-25T10:37:06.090Z,98901.88
2019-01-25T10:39:33.020Z,98896.91
2019-01-25T10:42:00.509Z,98907.64
2019-01-25T10:44:27.754Z,98899.73
2019-01-25T10:46:54.822Z,98905.27
2019-01-25T10:49:21.741Z,98904.46
2019-01-25T10:51:48.636Z,98896.05
2019-01-25T10:54:15.372Z,98897.36
2019-01-25T10:56:42.704Z,98895.50
2019-01-25T10:59:09.692Z,98895.36
2019-01-25T11:01:36.524Z,98896.00
2019-01-25T11:04:03.466Z,98908.21
2019-01-25T11:06:30.315Z,98902.13
2019-01-25T11:08:57.339Z,98900.55
2019-01-25T11:11:24.137Z,98900.25
2019-01-25T11:13:50.903Z,98898.50
2019-01-25T11:16:17.834Z,98900.69
2019-01-25T11:18:44.766Z,98895.11
2019-01-25T11:21:11.698Z,98905.13
2019-01-25T11:23:38.482Z,98903.69
2019-01-25T11:26:10.262Z,98897.80
2019-01-25T11:28:40.043Z,98900.66
2019-01-25T11:31:07.372Z,98901.41
2019-01-25T11:33:34.440Z,98907.73
2019-01-25T11:36:01.191Z,98928.75
2019-01-25T11:38:28.422Z,98894.95
2019-01-25T11:40:56.806Z,98858.73
2019-01-25T11:43:23.670Z,98894.67
2019-01-25T11:45:55.557Z,98893.37
2019-01-25T11:48:22.467Z,98911.63
2019-01-25T11:50:49.368Z,98885.98
2019-01-25T11:53:16.088Z,98887.53
2019-01-25T11:55:43.283Z,98895.49
2019-01-25T11:58:10.612Z,98895.35
2019-01-25T12:00:40.607Z,98886.80
2019-01-25T12:03:07.731Z,98887.69
2019-01-25T12:05:34.651Z,98883.55
2019-01-25T12:08:01.407Z,98887.11
2019-01-25T12:10:30.514Z,98877.25
2019-01-25T12:12:57.740Z,98881.75
2019-01-25T12:15:25.214Z,98887.13
2019-01-25T12:17:56.408Z,98874.73
2019-01-25T12:20:25.341Z,98864.50
2019-01-25T12:22:52.363Z,98866.75
2019-01-25T12:25:21.765Z,98874.08
2019-01-25T12:27:48.881Z,98874.02
2019-01-25T12:30:30.468Z,98869.85
2019-01-25T12:32:58.019Z,98880.86
2019-01-25T12:35:25.606Z,98870.08
2019-01-25T12:37:54.356Z,98876.82
2019-01-25T12:40:21.364Z,98878.05
2019-01-25T12:42:48.198Z,98876.23
2019-01-25T12:45:17.810Z,98876.94
2019-01-25T12:47:45.295Z,98879.98
2019-01-25T12:50:23.414Z,98880.34
2019-01-25T12:52:53.018Z,98882.44
2019-01-25T12:55:20.049Z,98893.23
2019-01-25T12:57:50.253Z,98875.05
2019-01-25T13:00:19.307Z,98877.30
2019-01-25T13:02:46.179Z,98876.30
2019-01-25T13:05:14.063Z,98876.21
2019-01-25T13:07:41.030Z,98863.20
2019-01-25T13:10:11.977Z,98866.59
2019-01-25T13:12:41.228Z,98868.97
2019-01-25T13:15:11.872Z,98871.39
2019-01-25T13:17:38.931Z,98861.06
2019-01-25T13:20:10.081Z,98873.13
2019-01-25T13:22:36.889Z,98874.47
2019-01-25T13:25:04.248Z,98868.73
2019-01-25T13:27:30.999Z,98877.33
2019-01-25T13:29:58.694Z,98873.55
2019-01-25T13:32:25.550Z,98874.91
2019-01-25T13:34:52.448Z,98881.55
2019-01-25T13:37:19.197Z,98876.61
2019-01-25T13:39:46.066Z,98873.42
2019-01-25T13:42:12.939Z,98884.88
2019-01-25T13:44:39.694Z,98883.16
2019-01-25T13:47:06.517Z,98895.72
2019-01-25T13:49:33.346Z,98893.64
2019-01-25T13:52:00.298Z,98898.03
2019-01-25T13:54:28.933Z,98899.58
2019-01-25T13:56:55.985Z,98903.66
2019-01-25T13:59:22.802Z,98911.77
2019-01-25T14:01:50.883Z,98910.46
2019-01-25T14:04:17.880Z,98906.62
2019-01-25T14:06:47.686Z,98901.61
2019-01-25T14:09:14.493Z,98893.51
2019-01-25T14:11:41.452Z,98893.56
2019-01-25T14:14:08.217Z,98884.96
2019-01-25T14:16:35.007Z,98885.63
2019-01-25T14:19:01.862Z,98870.19
2019-01-25T14:21:28.684Z,98865.81
2019-01-25T14:23:55.490Z,98867.75
2019-01-25T14:26:22.289Z,98882.46
2019-01-25T14:28:49.838Z,98872.80
2019-01-25T14:31:16.855Z,98873.69
2019-01-25T14:33:43.623Z,98880.87
2019-01-25T14:36:10.393Z,98884.45
2019-01-25T14:38:37.321Z,98881.07
2019-01-25T14:41:05.997Z,98888.65
2019-01-25T14:43:32.917Z,98883.89
2019-01-25T14:46:02.506Z,98888.03
2019-01-25T14:48:30.113Z,98878.61
2019-01-25T14:50:57.413Z,98880.64
2019-01-25T14:53:24.486Z,98890.20
2019-01-25T14:55:51.467Z,98884.45
2019-01-25T14:58:19.628Z,98868.53
2019-01-25T15:00:46.479Z,98859.93
2019-01-25T15:03:13.978Z,98854.41
2019-01-25T15:05:40.881Z,98854.59
2019-01-25T15:08:09.693Z,98849.14
2019-01-25T15:10:36.437Z,98854.69
2019-01-25T15:13:04.786Z,98850.94
2019-01-25T15:15:34.180Z,98851.66
2019-01-25T15:18:01.011Z,98854.80
2019-01-25T15:20:28.586Z,98841.13
2019-01-25T15:22:55.576Z,98842.52
2019-01-25T15:25:22.467Z,98846.20
2019-01-25T15:27:49.570Z,98844.89
2019-01-25T15:30:21.802Z,98866.61
2019-01-25T15:32:49.050Z,98867.47
2019-01-25T15:35:17.288Z,98870.02
2019-01-25T15:37:44.595Z,98859.80
2019-01-25T15:40:12.709Z,98858.07
2019-01-25T15:42:40.342Z,98864.77
2019-01-25T15:45:09.825Z,98871.39
2019-01-25T15:47:39.179Z,98882.83
2019-01-25T15:50:10.804Z,98873.94
2019-01-25T15:52:37.620Z,98862.80
2019-01-25T15:55:06.712Z,98871.05
2019-01-25T15:57:33.573Z,98860.88
2019-01-25T16:00:00.382Z,98859.29
2019-01-25T16:02:27.146Z,98855.27
2019-01-25T16:04:54.200Z,98860.04
2019-01-25T16:07:20.968Z,98857.87
2019-01-25T16:09:47.857Z,98851.86
2019-01-25T16:12:14.981Z,98868.80
2019-01-25T16:14:42.002Z,98855.16
2019-01-25T16:17:08.910Z,98859.84
2019-01-25T16:19:37.816Z,98859.66
2019-01-25T16:22:04.814Z,98860.90
2019-01-25T16:24:39.386Z,98863.88
2019-01-25T16:27:06.688Z,98865.40
2019-01-25T16:29:33.482Z,98870.62
2019-01-25T16:32:00.434Z,98877.95
2019-01-25T16:34:27.330Z,98887.91
2019-01-25T16:36:54.344Z,98874.97
2019-01-25T16:39:21.324Z,98884.14
2019-01-25T16:41:49.129Z,98880.63
2019-01-25T16:44:15.880Z,98876.13
2019-01-25T16:46:43.135Z,98883.17
2019-01-25T16:49:10.181Z,98869.71
2019-01-25T16:51:36.952Z,98876.48
2019-01-25T16:54:03.847Z,98869.30
2019-01-25T16:56:30.975Z,98883.23
2019-01-25T16:59:00.745Z,98881.78
2019-01-25T17:01:27.902Z,98880.00
2019-01-25T17:03:54.672Z,98872.69
2019-01-25T17:06:21.440Z,98870.62
2019-01-25T17:08:48.923Z,98876.95
2019-01-25T17:11:15.710Z,98871.59
2019-01-25T17:13:42.492Z,98864.69
2019-01-25T17:16:09.524Z,98868.23
2019-01-25T17:18:36.310Z,98875.97
2019-01-25T17:21:05.097Z,98874.30
2019-01-25T17:23:32.276Z,98876.73
2019-01-25T17:25:59.170Z,98878.44
2019-01-25T17:28:26.240Z,98882.06
2019-01-25T17:30:54.998Z,98881.31
2019-01-25T17:33:22.719Z,98897.40
2019-01-25T17:35:49.711Z,98888.33
2019-01-25T17:38:16.760Z,98888.14
2019-01-25T17:40:46.854Z,98887.65
2019-01-25T17:43:13.956Z,98875.86
2019-01-25T17:45:41.158Z,98877.17
2019-01-25T17:48:07.951Z,98865.44
2019-01-25T17:50:34.959Z,98885.98
2019-01-25T17:53:02.055Z,98876.98
2019-01-25T17:55:28.879Z,98877.40
2019-01-25T17:57:55.739Z,98878.16
2019-01-25T18:00:44.209Z,98860.77
2019-01-25T18:03:11.051Z,98866.52
2019-01-25T18:05:37.855Z,98882.25
2019-01-25T18:08:05.333Z,98861.27
2019-01-25T18:10:32.170Z,98875.52
2019-01-25T18:12:58.941Z,98863.02
2019-01-25T18:15:26.167Z,98853.77
2019-01-25T18:17:52.916Z,98851.21
2019-01-25T18:20:20.028Z,98843.39
2019-01-25T18:22:47.056Z,98840.83
2019-01-25T18:25:29.868Z,98842.58
2019-01-25T18:27:59.493Z,98828.24
2019-01-25T18:30:30.893Z,98824.92
2019-01-25T18:32:57.821Z,98830.98
2019-01-25T18:35:24.661Z,98828.33
2019-01-25T18:37:52.543Z,98828.16
2019-01-25T18:40:19.747Z,98830.72
2019-01-25T18:42:46.496Z,98834.67
2019-01-25T18:45:14.005Z,98830.76
2019-01-25T18:47:43.218Z,98821.78
2019-01-25T18:50:12.063Z,98818.05
2019-01-25T18:52:39.402Z,98820.38
2019-01-25T18:55:09.574Z,98813.20
2019-01-25T18:57:36.462Z,98813.87
2019-01-25T19:00:04.903Z,98819.44
2019-01-25T19:02:31.740Z,98818.64
2019-01-25T19:05:00.669Z,98819.94
2019-01-25T19:07:27.560Z,98809.61
2019-01-25T19:09:54.375Z,98808.74
2019-01-25T19:12:21.254Z,98808.39
2019-01-25T19:14:51.495Z,98813.11
2019-01-25T19:17:18.301Z,98801.44
2019-01-25T19:19:46.655Z,98807.98
2019-01-25T19:22:13.772Z,98798.28
2019-01-25T19:24:41.754Z,98790.64
2019-01-25T19:27:08.603Z,98797.52
2019-01-25T19:29:35.484Z,98807.98
2019-01-25T19:32:02.349Z,98804.56
2019-01-25T19:34:29.071Z,98807.08
2019-01-25T19:36:55.887Z,98817.19
2019-01-25T19:39:22.634Z,98816.88
2019-01-25T19:41:51.971Z,98807.27
2019-01-25T19:44:22.487Z,98809.08
2019-01-25T19:46:49.313Z,98801.32
2019-01-25T19:49:16.148Z,98802.53
2019-01-25T19:51:43.600Z,98792.17
2019-01-25T19:54:10.343Z,98780.22
2019-01-25T19:56:37.801Z,98787.55
2019-01-25T19:59:05.006Z,98790.88
2019-01-25T20:01:31.906Z,98794.81
2019-01-25T20:03:58.772Z,98798.09
2019-01-25T20:06:25.698Z,98788.54
2019-01-25T20:08:52.560Z,98795.89
2019-01-25T20:11:19.643Z,98783.07
2019-01-25T20:13:46.342Z,98776.10
2019-01-25T20:16:13.123Z,98784.00
2019-01-25T20:18:39.972Z,98799.90
2019-01-25T20:21:06.820Z,98799.77
2019-01-25T20:23:33.667Z,98802.06
2019-01-25T20:26:00.699Z,98800.22
2019-01-25T20:28:27.462Z,98783.02
2019-01-25T20:30:54.336Z,98796.77
2019-01-25T20:33:21.267Z,98790.28
2019-01-25T20:35:49.824Z,98777.41
2019-01-25T20:38:16.652Z,98786.48
2019-01-25T20:40:43.381Z,98783.61
2019-01-25T20:43:10.212Z,98777.62
2019-01-25T20:45:37.971Z,98786.07
2019-01-25T20:48:05.831Z,98776.69
2019-01-25T20:50:33.448Z,98767.70
2019-01-25T20:53:00.210Z,98776.95
2019-01-25T20:55:27.891Z,98764.06
2019-01-25T20:57:56.173Z,98769.27
2019-01-25T21:00:25.327Z,98762.12
2019-01-25T21:02:54.196Z,98764.25
2019-01-25T21:05:20.961Z,98760.97
2019-01-25T21:07:47.753Z,98772.23
2019-01-25T21:10:17.448Z,98766.17
2019-01-25T21:12:44.199Z,98772.11
2019-01-25T21:15:12.376Z,98777.75
2019-01-25T21:17:39.239Z,98775.10
2019-01-25T21:20:09.869Z,98774.89
2019-01-25T21:22:36.728Z,98775.91
2019-01-25T21:25:04.125Z,98784.67
2019-01-25T21:27:30.900Z,98774.34
2019-01-25T21:29:57.785Z,98778.80
2019-01-25T21:32:24.839Z,98781.22
2019-01-25T21:34:52.083Z,98777.67
2019-01-25T21:37:19.085Z,98779.14
2019-01-25T21:39:45.849Z,98766.03
2019-01-25T21:42:12.718Z,98770.72
2019-01-25T21:44:39.508Z,98757.37
2019-01-25T21:47:06.590Z,98760.78
2019-01-25T21:49:36.401Z,98751.09
2019-01-25T21:52:03.404Z,98736.36
2019-01-25T21:54:30.602Z,98726.25
2019-01-25T21:56:58.070Z,98717.95
2019-01-25T21:59:24.880Z,98723.74
2019-01-25T22:01:51.623Z,98703.95
2019-01-25T22:04:18.939Z,98702.33
2019-01-25T22:06:45.675Z,98720.87
2019-01-25T22:09:12.472Z,98711.81
2019-01-25T22:11:39.640Z,98715.48
2019-01-25T22:14:06.385Z,98719.59
2019-01-25T22:16:33.299Z,98710.34
2019-01-25T22:19:00.085Z,98714.30
2019-01-25T22:21:30.928Z,98717.85
2019-01-25T22:23:58.349Z,98729.04
2019-01-25T22:26:25.780Z,98737.80
2019-01-25T22:28:53.072Z,98728.69
2019-01-25T22:31:20.035Z,98732.27
2019-01-25T22:33:46.926Z,98729.81
2019-01-25T22:36:14.010Z,98737.02
2019-01-25T22:38:43.064Z,98712.36
2019-01-25T22:41:14.375Z,98724.14
2019-01-25T22:43:39.353Z,98751.94
2019-01-25T22:46:06.220Z,98713.64
2019-01-25T22:48:33.535Z,98720.06
2019-01-25T22:51:02.473Z,98715.52
2019-01-25T22:53:29.401Z,98720.78
2019-01-25T22:55:56.251Z,98718.09
2019-01-25T22:58:23.021Z,98728.05
2019-01-25T23:01:20.423Z,98712.78
2019-01-25T23:04:44.384Z,98715.57
2019-01-25T23:07:13.829Z,98704.34
2019-01-25T23:09:47.109Z,98691.41
2019-01-25T23:12:13.937Z,98686.86
2019-01-25T23:14:40.749Z,98683.70
2019-01-25T23:17:07.503Z,98686.62
2019-01-25T23:19:34.279Z,98691.43
2019-01-25T23:22:01.121Z,98692.81
2019-01-25T23:24:27.867Z,98688.28
2019-01-25T23:26:54.641Z,98694.07
2019-01-25T23:29:21.414Z,98699.55
2019-01-25T23:31:48.600Z,98686.95
2019-01-25T23:34:15.474Z,98690.30
2019-01-25T23:36:42.212Z,98685.23
2019-01-25T23:39:10.084Z,98682.89
2019-01-25T23:41:37.552Z,98689.41
2019-01-25T23:44:04.498Z,98687.88
2019-01-25T23:46:31.324Z,98691.16
2019-01-25T23:48:58.318Z,98689.91
2019-01-25T23:51:25.024Z,98702.73
2019-01-25T23:53:51.912Z,98695.59
2019-01-25T23:56:18.659Z,98703.37
2019-01-25T23:58:45.628Z,98699.41
